Central Coast from McInnes Island to Pine Island: Past 24 Hour Conditions

 

South Moresby - 46147

11:00 AM PDT 15 July 2018Buoy position: 51.83N 131.23W
Disclaimer

This table is a summary of hourly weather conditions for the past 24 hours.
Please note that these observations might not always be representative of weather conditions over their associated marine area.

Date / Time
(PDT)
Wind(knots) Wave height(m) Wave period(s) Pressure(kPa) Air tempC) Water tempC)
15 July 2018
11:00 WNW 8 gust 12 0.8 17.0 102.3 14 14
10:00 NW 12 gust 14 0.8 17.0 102.3 14 13
9:00 WNW 12 gust 16 0.7 14.0 102.3 14 14
8:00 WNW 12 gust 14 0.9 18.0 102.3 14 14
7:00 WNW 12 gust 16 0.9 17.0 102.3 14 14
6:00 WNW 10 gust 12 0.9 14.0 102.3 14 14
5:00 NW 14 gust 16 0.9 18.0 102.3 14 13
4:00 WNW 16 gust 19 1.0 17.0 102.3 14 13
3:00 WNW 16 gust 18 1.0 14.0 102.3 14 13
2:00 WNW 16 gust 19 1.0 17.0 102.3 14 14
1:00 NW 16 gust 18 1.1 5.0 102.3 14 14
0:00 NW 14 gust 16 1.2 5.0 102.4 14 15
14 July 2018
23:00 WNW 16 gust 19 1.3 5.0 102.4 14 15
22:00 NW 16 gust 19 1.4 5.0 102.4 14 14
21:00 WNW 19 gust 21 1.3 5.0 102.4 14 13
20:00 WNW 18 gust 21 1.3 5.0 102.4 14 12
19:00 WNW 18 gust 21 1.3 4.0 102.5 14 12
18:00 WNW 18 gust 19 1.4 5.0 102.5 14 13
17:00 WNW 16 gust 19 1.5 5.0 102.6 14 13
16:00 WNW 16 gust 19 1.5 5.0 102.6 14 13
15:00 WNW 14 gust 18 1.6 6.0 102.6 14 13
14:00 NW 14 gust 18 1.6 6.0 102.6 14 12
13:00 NW 12 gust 14 1.5 6.0 102.6 14 13
12:00 NW 12 N/A N/A 102.6 14 N/A
11:00 NW 14 gust 16 1.5 6.0 102.7 14 14

Zoom-in to make a selection

Map of Pacific - North Coast marine weather areas Middle Nomad - 46004 South Nomad - 46036 Dixon Entrance Central - 46145 South Moresby - 46147 Nanakwa Shoal - 46181 North Hecate Strait - 46183 North Nomad - 46184 South Hecate Strait - 46185 West Sea Otter - 46204 West Dixon Entrance - 46205 East Dellwood - 46207 West Moresby - 46208 Sartine Island Cape St.James Kindakun Rocks Langara Island Masset Municipal Airport Rose Spit Sandspit Airport Bella Bella Airport Bella Coola Airport Bonilla Island Cathedral Point Cumshewa Island Grey Islet Holland Rock Lucy Islands Lightstation Prince Rupert Airport
Legend:
buoy Buoy
land station Land Station

Pacific - North Coast Area

Another Region

What we are doing

Features

Follow us on Twitter!

Get timely local #weather alerts directly to your Twitter feed

Lightning Safety

When thunder roars, GO INDOORS!

UV Index and sun protection

Be weather wise!

Date modified: